Hlavní strana
METAR-TAF:

METAR-TAF

Letiště :

Letiště Kóbe

Kóbe, Japonsko

zeměpisná šířka: 34-37-58N, zeměpisná délka: 135-13-26E, výška: 7 m

Aktuální stav počasí

Zpráva byla vytvořena před 33 minutami, v 09:00 UTC
Severní vítr 13 kt
Teplota 12°C
Vlhkost vzduchu 35%
Tlak 1021 hPa
Viditelnost 10 km a více
Skoro jasno ve výšce 3500 ft

METAR: RJBE 100900Z 36013KT 9999 FEW035 12/M03 Q1021

Čas: 18:33 (09:33 UTC)


TAF: chybějící

Stav a předpovědi počasí z více než 4 000 letišť (zprávy METAR a TAF).

Červené a žluté tečky na mapě představují dostupné meteorologické stanice.

Když kurzor umístíte na tečku, zobrazí se název stanice.

Pak kliknutím zobrazíte stav a předpověď počasí.

Chcete-li změnit mapu, kliknutím na zelené tlačítko se znaménkem +mapu přiblížíte, kliknutím na zelené tlačítko se znaménkem – mapu oddálíte a kliknutím na zelené šipky přejdete na sousední mapy.


METAR-TAF: